createdAt,value
2019-01-05T00:04:41.479Z,101511.02
2019-01-05T00:07:29.092Z,101509.69
2019-01-05T00:10:16.829Z,101512.81
2019-01-05T00:16:14.403Z,101502.36
2019-01-05T00:24:26.292Z,101511.14
2019-01-05T00:27:14.268Z,101503.06
2019-01-05T00:30:22.731Z,101506.41
2019-01-05T00:36:06.522Z,101489.45
2019-01-05T00:39:14.936Z,101483.44
2019-01-05T00:42:02.589Z,101471.53
2019-01-05T00:45:11.001Z,101467.34
2019-01-05T00:48:19.491Z,101463.58
2019-01-05T00:51:27.942Z,101460.09
2019-01-05T00:54:36.699Z,101454.69
2019-01-05T00:57:24.275Z,101447.80
2019-01-05T01:00:12.201Z,101441.58
2019-01-05T01:03:00.067Z,101433.25
2019-01-05T01:05:47.715Z,101424.98
2019-01-05T01:08:35.340Z,101418.37
2019-01-05T01:11:23.063Z,101423.66
2019-01-05T01:14:10.736Z,101417.05
2019-01-05T01:16:58.498Z,101410.28
2019-01-05T01:19:46.271Z,101404.02
2019-01-05T01:22:54.728Z,101400.78
2019-01-05T01:26:03.171Z,101402.67
2019-01-05T01:28:51.141Z,101398.70
2019-01-05T01:34:47.121Z,101381.62
2019-01-05T01:37:34.774Z,101389.31
2019-01-05T01:40:43.278Z,101376.41
2019-01-05T01:43:30.860Z,101367.86
2019-01-05T01:46:39.349Z,101355.34
2019-01-05T01:49:26.918Z,101356.39
2019-01-05T01:52:14.668Z,101349.61
2019-01-05T01:58:12.260Z,101346.19
2019-01-05T02:00:59.856Z,101346.31
2019-01-05T02:04:08.314Z,101341.02
2019-01-05T02:07:16.776Z,101343.18
2019-01-05T02:10:25.243Z,101333.42
2019-01-05T02:13:33.703Z,101330.05
2019-01-05T02:16:42.165Z,101320.19
2019-01-05T02:19:50.594Z,101315.97
2019-01-05T02:22:59.142Z,101310.80
2019-01-05T02:26:07.908Z,101300.93
2019-01-05T02:29:34.153Z,101291.30
2019-01-05T02:32:42.910Z,101290.70
2019-01-05T02:36:09.468Z,101277.17
2019-01-05T02:39:35.706Z,101276.69
2019-01-05T02:43:01.990Z,101276.44
2019-01-05T02:46:28.244Z,101271.14
2019-01-05T02:49:37.345Z,101265.36
2019-01-05T02:52:46.148Z,101255.20
2019-01-05T02:55:54.536Z,101253.64
2019-01-05T02:59:20.820Z,101243.64
2019-01-05T03:06:17.722Z,101221.42
2019-01-05T03:09:26.489Z,101216.97
2019-01-05T03:12:34.992Z,101215.87
2019-01-05T03:16:01.265Z,101214.86
2019-01-05T03:19:09.744Z,101213.90
2019-01-05T03:22:18.182Z,101216.80
2019-01-05T03:25:44.439Z,101212.38
2019-01-05T03:28:52.929Z,101208.05
2019-01-05T03:32:01.396Z,101206.07
2019-01-05T03:35:09.874Z,101201.70
2019-01-05T03:38:36.120Z,101198.08
2019-01-05T03:41:44.654Z,101188.03
2019-01-05T03:48:23.804Z,101185.83
2019-01-05T03:51:50.038Z,101192.52
2019-01-05T03:54:58.524Z,101193.83
2019-01-05T03:58:24.791Z,101183.86
2019-01-05T04:01:33.804Z,101183.72
2019-01-05T04:04:42.290Z,101184.35
2019-01-05T04:07:51.053Z,101179.00
2019-01-05T04:14:20.189Z,101175.08
2019-01-05T04:20:59.617Z,101179.46
2019-01-05T04:24:25.862Z,101172.56
2019-01-05T04:27:34.684Z,101178.78
2019-01-05T04:31:00.934Z,101171.86
2019-01-05T04:37:39.916Z,101158.61
2019-01-05T04:44:18.955Z,101167.22
2019-01-05T04:47:27.482Z,101159.31
2019-01-05T04:50:35.907Z,101151.72
2019-01-05T04:54:02.177Z,101161.27
2019-01-05T04:57:10.908Z,101165.42
2019-01-05T05:07:14.226Z,101162.37
2019-01-05T05:10:23.011Z,101163.83
2019-01-05T05:13:31.743Z,101170.54
2019-01-05T05:16:40.244Z,101170.05
2019-01-05T05:19:48.774Z,101162.94
2019-01-05T05:26:27.725Z,101163.61
2019-01-05T05:29:36.500Z,101159.98
2019-01-05T05:36:15.317Z,101154.46
2019-01-05T05:39:23.739Z,101147.70
2019-01-05T05:45:48.973Z,101155.08
2019-01-05T05:48:57.497Z,101151.27
2019-01-05T05:52:23.744Z,101150.62
2019-01-05T05:58:52.476Z,101148.23
2019-01-05T06:02:01.188Z,101150.26
2019-01-05T06:05:09.662Z,101141.95
2019-01-05T06:11:48.465Z,101147.70
2019-01-05T06:14:57.232Z,101151.80
2019-01-05T06:18:23.428Z,101157.31
2019-01-05T06:21:31.993Z,101152.56
2019-01-05T06:24:40.796Z,101158.56
2019-01-05T06:31:37.720Z,101160.38
2019-01-05T06:34:46.462Z,101168.59
2019-01-05T06:41:12.338Z,101175.22
2019-01-05T06:44:21.077Z,101170.00
2019-01-05T06:50:46.563Z,101167.62
2019-01-05T06:53:55.000Z,101173.55
2019-01-05T06:57:21.274Z,101184.50
2019-01-05T07:00:30.025Z,101202.98
2019-01-05T07:03:56.289Z,101217.38
2019-01-05T07:07:22.527Z,101230.48
2019-01-05T07:13:47.732Z,101252.41
2019-01-05T07:17:14.060Z,101255.55
2019-01-05T07:20:22.837Z,101248.28
2019-01-05T07:23:49.060Z,101251.74
2019-01-05T07:27:15.336Z,101250.37
2019-01-05T07:30:41.594Z,101256.38
2019-01-05T07:33:50.073Z,101258.11
2019-01-05T07:36:58.868Z,101273.49
2019-01-05T07:40:25.118Z,101276.82
2019-01-05T07:43:33.626Z,101289.33
2019-01-05T07:46:42.147Z,101296.23
2019-01-05T07:53:39.018Z,101305.88
2019-01-05T07:56:47.465Z,101317.28
2019-01-05T07:59:55.951Z,101318.25
2019-01-05T08:03:22.236Z,101318.61
2019-01-05T08:06:30.666Z,101321.31
2019-01-05T08:09:39.473Z,101333.38
2019-01-05T08:12:48.225Z,101336.31
2019-01-05T08:15:57.461Z,101342.27
2019-01-05T08:19:23.732Z,101337.09
2019-01-05T08:22:32.478Z,101336.26
2019-01-05T08:25:58.738Z,101334.00
2019-01-05T08:29:25.207Z,101328.48
2019-01-05T08:32:51.432Z,101342.50
2019-01-05T08:36:17.673Z,101337.06
2019-01-05T08:39:43.955Z,101335.33
2019-01-05T08:43:10.199Z,101341.30
2019-01-05T08:46:36.481Z,101338.61
2019-01-05T08:49:45.025Z,101343.29
2019-01-05T08:52:53.796Z,101355.33
2019-01-05T08:59:19.322Z,101354.09
2019-01-05T09:02:45.569Z,101366.30
2019-01-05T09:06:11.854Z,101363.24
2019-01-05T09:09:38.427Z,101368.47
2019-01-05T09:12:46.943Z,101373.42
2019-01-05T09:15:55.701Z,101379.79
2019-01-05T09:19:04.196Z,101374.17
2019-01-05T09:22:12.654Z,101373.77
2019-01-05T09:25:21.176Z,101368.91
2019-01-05T09:28:47.397Z,101373.38
2019-01-05T09:31:55.905Z,101383.30
2019-01-05T09:35:04.414Z,101376.58
2019-01-05T09:38:30.691Z,101381.48
2019-01-05T09:41:56.951Z,101385.38
2019-01-05T09:45:05.712Z,101386.13
2019-01-05T09:48:14.497Z,101386.88
2019-01-05T09:51:22.981Z,101375.75
2019-01-05T09:54:31.507Z,101386.02
2019-01-05T09:57:57.765Z,101390.98
2019-01-05T10:01:06.238Z,101394.70
2019-01-05T10:04:32.484Z,101402.57
2019-01-05T10:07:40.940Z,101393.77
2019-01-05T10:10:49.443Z,101395.53
2019-01-05T10:13:57.873Z,101398.58
2019-01-05T10:17:06.404Z,101393.13
2019-01-05T10:20:32.612Z,101383.95
2019-01-05T10:23:58.866Z,101384.30
2019-01-05T10:27:07.363Z,101396.37
2019-01-05T10:33:46.746Z,101392.08
2019-01-05T10:36:55.611Z,101400.16
2019-01-05T10:40:21.866Z,101400.30
2019-01-05T10:43:48.381Z,101403.39
2019-01-05T10:46:57.436Z,101395.90
2019-01-05T10:50:23.668Z,101404.45
2019-01-05T10:56:52.578Z,101404.38
2019-01-05T11:00:01.052Z,101411.98
2019-01-05T11:03:09.664Z,101410.55
2019-01-05T11:06:18.516Z,101415.70
2019-01-05T11:09:44.810Z,101414.09
2019-01-05T11:12:53.631Z,101420.50
2019-01-05T11:16:02.116Z,101410.11
2019-01-05T11:19:10.645Z,101419.48
2019-01-05T11:29:10.065Z,101428.83
2019-01-05T11:32:36.286Z,101435.09
2019-01-05T11:36:02.588Z,101431.94
2019-01-05T11:39:11.038Z,101426.66
2019-01-05T11:42:19.797Z,101421.43
2019-01-05T11:45:28.640Z,101425.34
2019-01-05T11:48:37.181Z,101428.27
2019-01-05T11:51:45.702Z,101427.09
2019-01-05T11:54:54.171Z,101430.56
2019-01-05T11:58:02.636Z,101429.75
2019-01-05T12:01:11.235Z,101430.33
2019-01-05T12:04:37.517Z,101441.23
2019-01-05T12:08:04.615Z,101443.16
2019-01-05T12:11:31.030Z,101448.70
2019-01-05T12:21:33.975Z,101458.33
2019-01-05T12:24:42.849Z,101459.83
2019-01-05T12:28:09.101Z,101467.36
2019-01-05T12:31:35.404Z,101466.48
2019-01-05T12:34:43.813Z,101469.03
2019-01-05T12:38:10.071Z,101474.20
2019-01-05T12:41:18.546Z,101478.86
2019-01-05T12:44:44.756Z,101482.41
2019-01-05T12:51:09.960Z,101479.33
2019-01-05T12:54:36.239Z,101477.33
2019-01-05T12:57:44.747Z,101484.95
2019-01-05T13:00:53.492Z,101479.28
2019-01-05T13:04:19.795Z,101485.84
2019-01-05T13:07:46.042Z,101483.08
2019-01-05T13:10:55.113Z,101489.06
2019-01-05T13:14:03.680Z,101490.31
2019-01-05T13:17:29.897Z,101495.98
2019-01-05T13:20:56.475Z,101494.37
2019-01-05T13:24:05.009Z,101503.33
2019-01-05T13:30:34.176Z,101504.66
2019-01-05T13:33:42.705Z,101503.95
2019-01-05T13:37:08.958Z,101508.25
2019-01-05T13:40:17.463Z,101509.98
2019-01-05T13:43:43.690Z,101515.70
2019-01-05T13:46:52.189Z,101530.84
2019-01-05T13:50:18.420Z,101530.28
2019-01-05T13:53:26.951Z,101533.08
2019-01-05T13:56:35.408Z,101538.70
2019-01-05T13:59:23.011Z,101543.44
2019-01-05T14:02:10.620Z,101545.61
2019-01-05T14:04:58.172Z,101550.98
2019-01-05T14:07:45.748Z,101550.35
2019-01-05T14:13:22.573Z,101559.95
2019-01-05T14:18:59.194Z,101565.05
2019-01-05T14:24:35.862Z,101571.48
2019-01-05T14:27:23.464Z,101567.94
2019-01-05T14:30:11.065Z,101575.83
2019-01-05T14:32:58.737Z,101566.88
2019-01-05T14:35:46.370Z,101568.20
2019-01-05T14:38:34.058Z,101571.84
2019-01-05T14:41:21.722Z,101576.88
2019-01-05T14:44:09.395Z,101578.97
2019-01-05T14:46:57.004Z,101582.98
2019-01-05T14:49:44.638Z,101586.39
2019-01-05T14:52:32.295Z,101590.45
2019-01-05T15:00:44.434Z,101599.76
2019-01-05T15:03:32.077Z,101602.55
2019-01-05T15:06:19.774Z,101605.69
2019-01-05T15:09:07.395Z,101611.92
2019-01-05T15:11:54.969Z,101613.87
2019-01-05T15:14:42.717Z,101616.88
2019-01-05T15:17:30.322Z,101628.00
2019-01-05T15:20:17.886Z,101622.59
2019-01-05T15:23:05.797Z,101628.42
2019-01-05T15:25:53.530Z,101631.95
2019-01-05T15:31:20.283Z,101629.75
2019-01-05T15:34:07.884Z,101630.14
2019-01-05T15:36:56.312Z,101624.96
2019-01-05T15:39:44.288Z,101629.38
2019-01-05T15:42:31.851Z,101632.38
2019-01-05T15:45:19.539Z,101631.67
2019-01-05T15:50:56.510Z,101638.02
2019-01-05T15:53:44.193Z,101634.39
2019-01-05T15:56:31.774Z,101643.11
2019-01-05T15:59:19.754Z,101645.92
2019-01-05T16:02:07.428Z,101646.89
2019-01-05T16:04:54.999Z,101650.66
2019-01-05T16:07:42.628Z,101655.84
2019-01-05T16:13:05.539Z,101666.45
2019-01-05T16:15:53.261Z,101661.41
2019-01-05T16:18:40.846Z,101672.87
2019-01-05T16:21:28.471Z,101672.31
2019-01-05T16:24:16.119Z,101661.14
2019-01-05T16:27:03.737Z,101657.97
2019-01-05T16:29:52.208Z,101661.72
2019-01-05T16:32:39.865Z,101667.39
2019-01-05T16:35:27.538Z,101673.67
2019-01-05T16:38:15.217Z,101668.45
2019-01-05T16:43:51.915Z,101672.02
2019-01-05T16:46:39.746Z,101674.16
2019-01-05T16:49:27.419Z,101681.63
2019-01-05T16:55:04.412Z,101674.51
2019-01-05T16:57:52.012Z,101674.51
2019-01-05T17:00:39.630Z,101677.45
2019-01-05T17:03:27.202Z,101674.08
2019-01-05T17:06:14.762Z,101676.02
2019-01-05T17:09:02.330Z,101677.64
2019-01-05T17:11:49.953Z,101682.59
2019-01-05T17:14:37.557Z,101686.21
2019-01-05T17:17:25.149Z,101679.94
2019-01-05T17:20:12.882Z,101682.59
2019-01-05T17:23:00.411Z,101687.31
2019-01-05T17:25:48.223Z,101690.80
2019-01-05T17:28:35.861Z,101696.40
2019-01-05T17:31:23.452Z,101698.05
2019-01-05T17:34:11.030Z,101706.86
2019-01-05T17:36:58.996Z,101705.89
2019-01-05T17:39:46.660Z,101707.45
2019-01-05T17:42:34.230Z,101707.09
2019-01-05T17:47:57.455Z,101720.23
2019-01-05T17:53:20.423Z,101722.41
2019-01-05T17:56:08.112Z,101724.47
2019-01-05T17:58:55.693Z,101728.50
2019-01-05T18:01:43.344Z,101730.92
2019-01-05T18:04:30.924Z,101725.34
2019-01-05T18:12:43.169Z,101734.68
2019-01-05T18:15:30.838Z,101735.89
2019-01-05T18:18:18.416Z,101743.02
2019-01-05T18:21:06.020Z,101742.33
2019-01-05T18:23:53.717Z,101745.27
2019-01-05T18:26:41.308Z,101754.34
2019-01-05T18:29:28.882Z,101751.13
2019-01-05T18:32:16.526Z,101755.38
2019-01-05T18:35:04.110Z,101756.38
2019-01-05T18:37:51.708Z,101764.75
2019-01-05T18:40:39.277Z,101773.66
2019-01-05T18:43:26.872Z,101784.08
2019-01-05T18:46:14.510Z,101787.58
2019-01-05T18:49:02.275Z,101788.58
2019-01-05T18:51:49.985Z,101792.06
2019-01-05T18:54:37.631Z,101790.73
2019-01-05T18:57:25.383Z,101790.14
2019-01-05T19:00:12.970Z,101794.21
2019-01-05T19:06:08.943Z,101799.28
2019-01-05T19:14:24.488Z,101812.63
2019-01-05T19:17:12.128Z,101815.88
2019-01-05T19:19:59.744Z,101815.88
2019-01-05T19:22:47.652Z,101815.88
2019-01-05T19:25:35.142Z,101823.34
2019-01-05T19:28:22.902Z,101821.53
2019-01-05T19:31:10.541Z,101828.52
2019-01-05T19:33:58.111Z,101827.81
2019-01-05T19:36:45.803Z,101837.06
2019-01-05T19:39:33.894Z,101844.89
2019-01-05T19:42:21.491Z,101843.22
2019-01-05T19:47:58.105Z,101852.52
2019-01-05T19:50:45.688Z,101853.83
2019-01-05T19:53:33.298Z,101852.87
2019-01-05T19:59:17.781Z,101854.80
2019-01-05T20:07:33.324Z,101863.79
2019-01-05T20:10:21.209Z,101871.27
2019-01-05T20:13:08.786Z,101871.04
2019-01-05T20:15:56.371Z,101871.38
2019-01-05T20:18:44.348Z,101877.16
2019-01-05T20:21:31.892Z,101879.22
2019-01-05T20:26:54.737Z,101885.00
2019-01-05T20:29:42.342Z,101890.41
2019-01-05T20:32:30.007Z,101890.15
2019-01-05T20:37:56.458Z,101888.82
2019-01-05T20:40:44.108Z,101891.09
2019-01-05T20:43:31.676Z,101886.61
2019-01-05T20:48:54.848Z,101894.92
2019-01-05T20:57:06.861Z,101906.45
2019-01-05T20:59:54.560Z,101906.56
2019-01-05T21:02:42.167Z,101905.23
2019-01-05T21:05:29.794Z,101907.39
2019-01-05T21:08:17.377Z,101908.36
2019-01-05T21:11:05.082Z,101914.12
2019-01-05T21:13:52.647Z,101918.78
2019-01-05T21:16:40.282Z,101919.98
2019-01-05T21:19:27.921Z,101919.02
2019-01-05T21:22:15.448Z,101917.54
2019-01-05T21:25:03.042Z,101919.34
2019-01-05T21:27:50.622Z,101925.97
2019-01-05T21:30:38.559Z,101923.08
2019-01-05T21:33:26.211Z,101917.89
2019-01-05T21:36:13.752Z,101921.34
2019-01-05T21:39:01.362Z,101928.94
2019-01-05T21:41:48.978Z,101931.79
2019-01-05T21:44:36.561Z,101927.56
2019-01-05T21:47:24.544Z,101933.33
2019-01-05T21:50:12.188Z,101939.23
2019-01-05T21:55:35.334Z,101937.98
2019-01-05T21:58:23.021Z,101946.88
2019-01-05T22:01:10.694Z,101941.81
2019-01-05T22:03:58.299Z,101947.95
2019-01-05T22:06:46.191Z,101951.42
2019-01-05T22:09:33.872Z,101953.11
2019-01-05T22:12:42.364Z,101949.25
2019-01-05T22:23:16.053Z,101945.47
2019-01-05T22:26:03.756Z,101944.89
2019-01-05T22:28:51.323Z,101940.67
2019-01-05T22:31:38.994Z,101947.19
2019-01-05T22:34:26.599Z,101949.48
2019-01-05T22:39:53.404Z,101950.01
2019-01-05T22:48:08.629Z,101955.87
2019-01-05T22:50:56.306Z,101959.11
2019-01-05T22:53:43.875Z,101955.72
2019-01-05T22:56:31.659Z,101959.11
2019-01-05T23:07:24.832Z,101958.37
2019-01-05T23:10:12.502Z,101967.62
2019-01-05T23:13:00.221Z,101967.31
2019-01-05T23:18:26.784Z,101962.87
2019-01-05T23:24:09.304Z,101966.67
2019-01-05T23:26:56.951Z,101962.58
2019-01-05T23:29:44.567Z,101965.80
2019-01-05T23:32:32.315Z,101968.08
2019-01-05T23:35:20.036Z,101973.84
2019-01-05T23:38:07.890Z,101976.48
2019-01-05T23:40:55.538Z,101977.95
2019-01-05T23:43:43.281Z,101982.87
2019-01-05T23:46:30.917Z,101970.12
2019-01-05T23:52:14.745Z,101974.19
2019-01-05T23:55:02.785Z,101969.85
2019-01-05T23:57:50.713Z,101973.72
